sensor_id;sensor_type;location;lat;lon;timestamp;temperature;humidity
39067;DHT22;24821;51.988;6.020;2023-02-18T00:00:11;11.20;99.90
39067;DHT22;24821;51.988;6.020;2023-02-18T00:02:37;11.30;99.90
39067;DHT22;24821;51.988;6.020;2023-02-18T00:05:03;11.20;99.90
39067;DHT22;24821;51.988;6.020;2023-02-18T00:07:36;11.20;99.90
39067;DHT22;24821;51.988;6.020;2023-02-18T00:10:03;11.20;99.90
39067;DHT22;24821;51.988;6.020;2023-02-18T00:12:29;11.10;99.90
39067;DHT22;24821;51.988;6.020;2023-02-18T00:14:55;11.10;99.90
39067;DHT22;24821;51.988;6.020;2023-02-18T00:17:21;11.10;99.90
39067;DHT22;24821;51.988;6.020;2023-02-18T00:19:47;11.10;99.90
39067;DHT22;24821;51.988;6.020;2023-02-18T00:22:12;11.10;99.90
39067;DHT22;24821;51.988;6.020;2023-02-18T00:24:38;11.10;99.90
39067;DHT22;24821;51.988;6.020;2023-02-18T00:27:03;11.00;99.90
39067;DHT22;24821;51.988;6.020;2023-02-18T00:29:29;11.10;99.90
39067;DHT22;24821;51.988;6.020;2023-02-18T00:31:54;11.00;99.90
39067;DHT22;24821;51.988;6.020;2023-02-18T00:34:20;11.00;99.90
39067;DHT22;24821;51.988;6.020;2023-02-18T00:36:46;11.00;99.90
39067;DHT22;24821;51.988;6.020;2023-02-18T00:39:11;11.00;99.90
39067;DHT22;24821;51.988;6.020;2023-02-18T00:41:38;11.00;99.90
39067;DHT22;24821;51.988;6.020;2023-02-18T00:44:04;11.00;99.90
39067;DHT22;24821;51.988;6.020;2023-02-18T00:46:30;11.00;99.90
39067;DHT22;24821;51.988;6.020;2023-02-18T00:48:55;11.00;99.90
39067;DHT22;24821;51.988;6.020;2023-02-18T00:51:21;11.10;99.90
39067;DHT22;24821;51.988;6.020;2023-02-18T00:53:47;11.00;99.90
39067;DHT22;24821;51.988;6.020;2023-02-18T00:56:13;11.00;99.90
39067;DHT22;24821;51.988;6.020;2023-02-18T00:58:38;11.00;99.90
39067;DHT22;24821;51.988;6.020;2023-02-18T01:01:05;11.00;99.90
39067;DHT22;24821;51.988;6.020;2023-02-18T01:03:31;11.00;99.90
39067;DHT22;24821;51.988;6.020;2023-02-18T01:05:57;11.00;99.90
39067;DHT22;24821;51.988;6.020;2023-02-18T01:08:22;11.00;99.90
39067;DHT22;24821;51.988;6.020;2023-02-18T01:10:52;11.00;99.90
39067;DHT22;24821;51.988;6.020;2023-02-18T01:13:18;11.00;99.90
39067;DHT22;24821;51.988;6.020;2023-02-18T01:15:43;11.00;99.90
39067;DHT22;24821;51.988;6.020;2023-02-18T01:18:10;11.00;99.90
39067;DHT22;24821;51.988;6.020;2023-02-18T01:20:37;11.10;99.90
39067;DHT22;24821;51.988;6.020;2023-02-18T01:23:04;11.00;99.90
39067;DHT22;24821;51.988;6.020;2023-02-18T01:25:30;11.00;99.90
39067;DHT22;24821;51.988;6.020;2023-02-18T01:27:56;11.00;99.90
39067;DHT22;24821;51.988;6.020;2023-02-18T01:30:22;11.10;99.90
39067;DHT22;24821;51.988;6.020;2023-02-18T01:32:48;11.00;99.90
39067;DHT22;24821;51.988;6.020;2023-02-18T01:35:15;11.00;99.90
39067;DHT22;24821;51.988;6.020;2023-02-18T01:37:41;11.10;99.90
39067;DHT22;24821;51.988;6.020;2023-02-18T01:40:08;11.00;99.90
39067;DHT22;24821;51.988;6.020;2023-02-18T01:42:34;11.10;99.90
39067;DHT22;24821;51.988;6.020;2023-02-18T01:50:30;11.10;99.90
39067;DHT22;24821;51.988;6.020;2023-02-18T01:52:56;11.10;99.90
39067;DHT22;24821;51.988;6.020;2023-02-18T01:55:22;11.10;99.90
39067;DHT22;24821;51.988;6.020;2023-02-18T01:57:47;11.10;99.90
39067;DHT22;24821;51.988;6.020;2023-02-18T02:00:16;11.10;99.90
39067;DHT22;24821;51.988;6.020;2023-02-18T02:02:45;11.10;99.90
39067;DHT22;24821;51.988;6.020;2023-02-18T02:05:11;11.10;99.90
39067;DHT22;24821;51.988;6.020;2023-02-18T02:07:39;11.10;99.90
39067;DHT22;24821;51.988;6.020;2023-02-18T02:10:06;11.10;99.90
39067;DHT22;24821;51.988;6.020;2023-02-18T02:12:34;11.10;99.90
39067;DHT22;24821;51.988;6.020;2023-02-18T02:38:33;11.00;99.90
39067;DHT22;24821;51.988;6.020;2023-02-18T02:43:46;11.00;99.90
39067;DHT22;24821;51.988;6.020;2023-02-18T02:49:13;11.10;99.90
39067;DHT22;24821;51.988;6.020;2023-02-18T02:51:56;11.10;99.90
39067;DHT22;24821;51.988;6.020;2023-02-18T02:54:25;11.10;99.90
39067;DHT22;24821;51.988;6.020;2023-02-18T02:57:05;11.10;99.90
39067;DHT22;24821;51.988;6.020;2023-02-18T02:59:32;11.20;99.90
39067;DHT22;24821;51.988;6.020;2023-02-18T03:02:31;11.10;99.90
39067;DHT22;24821;51.988;6.020;2023-02-18T03:05:19;11.20;99.90
39067;DHT22;24821;51.988;6.020;2023-02-18T03:16:25;11.20;99.90
39067;DHT22;24821;51.988;6.020;2023-02-18T03:22:07;11.30;99.90
39067;DHT22;24821;51.988;6.020;2023-02-18T03:24:38;11.20;99.90
39067;DHT22;24821;51.988;6.020;2023-02-18T03:27:12;11.30;99.90
39067;DHT22;24821;51.988;6.020;2023-02-18T03:29:41;11.30;99.90
39067;DHT22;24821;51.988;6.020;2023-02-18T03:32:09;11.30;99.90
39067;DHT22;24821;51.988;6.020;2023-02-18T03:34:41;11.30;99.90
39067;DHT22;24821;51.988;6.020;2023-02-18T03:37:09;11.30;99.90
39067;DHT22;24821;51.988;6.020;2023-02-18T03:39:36;11.30;99.90
39067;DHT22;24821;51.988;6.020;2023-02-18T03:42:03;11.30;99.90
39067;DHT22;24821;51.988;6.020;2023-02-18T03:44:29;11.40;99.90
39067;DHT22;24821;51.988;6.020;2023-02-18T03:46:55;11.30;99.90
39067;DHT22;24821;51.988;6.020;2023-02-18T03:49:21;11.40;99.90
39067;DHT22;24821;51.988;6.020;2023-02-18T03:51:46;11.40;99.90
39067;DHT22;24821;51.988;6.020;2023-02-18T03:54:12;11.40;99.90
39067;DHT22;24821;51.988;6.020;2023-02-18T03:56:39;11.40;99.90
39067;DHT22;24821;51.988;6.020;2023-02-18T03:59:04;11.40;99.90
39067;DHT22;24821;51.988;6.020;2023-02-18T04:01:30;11.40;99.90
39067;DHT22;24821;51.988;6.020;2023-02-18T04:03:56;11.40;99.90
39067;DHT22;24821;51.988;6.020;2023-02-18T04:06:22;11.40;99.90
39067;DHT22;24821;51.988;6.020;2023-02-18T04:08:48;11.40;99.90
39067;DHT22;24821;51.988;6.020;2023-02-18T04:11:14;11.40;99.90
39067;DHT22;24821;51.988;6.020;2023-02-18T04:13:40;11.40;99.90
39067;DHT22;24821;51.988;6.020;2023-02-18T04:16:06;11.50;99.90
39067;DHT22;24821;51.988;6.020;2023-02-18T04:18:31;11.50;99.90
39067;DHT22;24821;51.988;6.020;2023-02-18T04:20:57;11.50;99.90
39067;DHT22;24821;51.988;6.020;2023-02-18T04:23:23;11.50;99.90
39067;DHT22;24821;51.988;6.020;2023-02-18T04:25:48;11.50;99.90
39067;DHT22;24821;51.988;6.020;2023-02-18T04:28:15;11.50;99.90
39067;DHT22;24821;51.988;6.020;2023-02-18T04:30:42;11.50;99.90
39067;DHT22;24821;51.988;6.020;2023-02-18T04:33:07;11.50;99.90
39067;DHT22;24821;51.988;6.020;2023-02-18T04:35:33;11.50;99.90
39067;DHT22;24821;51.988;6.020;2023-02-18T04:37:59;11.50;99.90
39067;DHT22;24821;51.988;6.020;2023-02-18T04:40:24;11.50;99.90
39067;DHT22;24821;51.988;6.020;2023-02-18T04:42:54;11.50;99.90
39067;DHT22;24821;51.988;6.020;2023-02-18T04:45:19;11.50;99.90
39067;DHT22;24821;51.988;6.020;2023-02-18T04:47:45;11.50;99.90
39067;DHT22;24821;51.988;6.020;2023-02-18T04:50:10;11.50;99.90
39067;DHT22;24821;51.988;6.020;2023-02-18T04:52:36;11.50;99.90
39067;DHT22;24821;51.988;6.020;2023-02-18T04:55:01;11.50;99.90
39067;DHT22;24821;51.988;6.020;2023-02-18T04:57:27;11.40;99.90
39067;DHT22;24821;51.988;6.020;2023-02-18T04:59:52;11.40;99.90
39067;DHT22;24821;51.988;6.020;2023-02-18T05:02:18;11.40;99.90
39067;DHT22;24821;51.988;6.020;2023-02-18T05:04:43;11.50;99.90
39067;DHT22;24821;51.988;6.020;2023-02-18T05:07:09;11.50;99.90
39067;DHT22;24821;51.988;6.020;2023-02-18T05:09:34;11.50;99.90
39067;DHT22;24821;51.988;6.020;2023-02-18T05:12:00;11.40;99.90
39067;DHT22;24821;51.988;6.020;2023-02-18T05:14:25;11.40;99.90
39067;DHT22;24821;51.988;6.020;2023-02-18T05:16:51;11.40;99.90
39067;DHT22;24821;51.988;6.020;2023-02-18T05:19:17;11.40;99.90
39067;DHT22;24821;51.988;6.020;2023-02-18T05:21:43;11.40;99.90
39067;DHT22;24821;51.988;6.020;2023-02-18T05:24:08;11.40;99.90
39067;DHT22;24821;51.988;6.020;2023-02-18T05:26:34;11.40;99.90
39067;DHT22;24821;51.988;6.020;2023-02-18T05:29:00;11.40;99.90
39067;DHT22;24821;51.988;6.020;2023-02-18T05:31:25;11.40;99.90
39067;DHT22;24821;51.988;6.020;2023-02-18T05:33:51;11.40;99.90
39067;DHT22;24821;51.988;6.020;2023-02-18T05:36:16;11.40;99.90
39067;DHT22;24821;51.988;6.020;2023-02-18T05:38:42;11.40;99.90
39067;DHT22;24821;51.988;6.020;2023-02-18T05:41:07;11.40;99.90
39067;DHT22;24821;51.988;6.020;2023-02-18T05:43:33;11.40;99.90
39067;DHT22;24821;51.988;6.020;2023-02-18T05:46:18;11.40;99.90
39067;DHT22;24821;51.988;6.020;2023-02-18T05:48:44;11.40;99.90
39067;DHT22;24821;51.988;6.020;2023-02-18T05:51:10;11.30;99.90
39067;DHT22;24821;51.988;6.020;2023-02-18T05:53:35;11.30;99.90
39067;DHT22;24821;51.988;6.020;2023-02-18T05:56:01;11.30;99.90
39067;DHT22;24821;51.988;6.020;2023-02-18T05:58:26;11.40;99.90
39067;DHT22;24821;51.988;6.020;2023-02-18T06:00:52;11.30;99.90
39067;DHT22;24821;51.988;6.020;2023-02-18T06:03:17;11.30;99.90
39067;DHT22;24821;51.988;6.020;2023-02-18T06:05:43;11.30;99.90
39067;DHT22;24821;51.988;6.020;2023-02-18T06:08:08;11.30;99.90
39067;DHT22;24821;51.988;6.020;2023-02-18T06:10:34;11.20;99.90
39067;DHT22;24821;51.988;6.020;2023-02-18T06:12:59;11.20;99.90
39067;DHT22;24821;51.988;6.020;2023-02-18T06:15:26;11.20;99.90
39067;DHT22;24821;51.988;6.020;2023-02-18T06:17:53;11.30;99.90
39067;DHT22;24821;51.988;6.020;2023-02-18T06:20:18;11.20;99.90
39067;DHT22;24821;51.988;6.020;2023-02-18T06:22:44;11.20;99.90
39067;DHT22;24821;51.988;6.020;2023-02-18T06:25:09;11.30;99.90
39067;DHT22;24821;51.988;6.020;2023-02-18T06:27:35;11.20;99.90
39067;DHT22;24821;51.988;6.020;2023-02-18T06:30:00;11.20;99.90
39067;DHT22;24821;51.988;6.020;2023-02-18T06:32:26;11.20;99.90
39067;DHT22;24821;51.988;6.020;2023-02-18T06:34:52;11.20;99.90
39067;DHT22;24821;51.988;6.020;2023-02-18T06:37:17;11.20;99.90
39067;DHT22;24821;51.988;6.020;2023-02-18T06:39:43;11.20;99.90
39067;DHT22;24821;51.988;6.020;2023-02-18T06:42:08;11.20;99.90
39067;DHT22;24821;51.988;6.020;2023-02-18T06:44:34;11.30;99.90
39067;DHT22;24821;51.988;6.020;2023-02-18T06:46:59;11.30;99.90
39067;DHT22;24821;51.988;6.020;2023-02-18T06:49:25;11.20;99.90
39067;DHT22;24821;51.988;6.020;2023-02-18T06:51:50;11.20;99.90
39067;DHT22;24821;51.988;6.020;2023-02-18T06:54:16;11.20;99.90
39067;DHT22;24821;51.988;6.020;2023-02-18T06:56:41;11.20;99.90
39067;DHT22;24821;51.988;6.020;2023-02-18T06:59:07;11.30;99.90
39067;DHT22;24821;51.988;6.020;2023-02-18T07:01:33;11.20;99.90
39067;DHT22;24821;51.988;6.020;2023-02-18T07:03:58;11.30;99.90
39067;DHT22;24821;51.988;6.020;2023-02-18T07:06:24;11.30;99.90
39067;DHT22;24821;51.988;6.020;2023-02-18T07:08:49;11.30;99.90
39067;DHT22;24821;51.988;6.020;2023-02-18T07:11:15;11.20;99.90
39067;DHT22;24821;51.988;6.020;2023-02-18T07:13:41;11.20;99.90
39067;DHT22;24821;51.988;6.020;2023-02-18T07:16:06;11.20;99.90
39067;DHT22;24821;51.988;6.020;2023-02-18T07:18:32;11.10;99.90
39067;DHT22;24821;51.988;6.020;2023-02-18T07:20:57;11.20;99.90
39067;DHT22;24821;51.988;6.020;2023-02-18T07:23:23;11.20;99.90
39067;DHT22;24821;51.988;6.020;2023-02-18T07:25:48;11.10;99.90
39067;DHT22;24821;51.988;6.020;2023-02-18T07:28:14;11.20;99.90
39067;DHT22;24821;51.988;6.020;2023-02-18T07:30:40;11.10;99.90
39067;DHT22;24821;51.988;6.020;2023-02-18T07:33:05;11.20;99.90
39067;DHT22;24821;51.988;6.020;2023-02-18T07:35:31;11.10;99.90
39067;DHT22;24821;51.988;6.020;2023-02-18T07:37:57;11.10;99.90
39067;DHT22;24821;51.988;6.020;2023-02-18T07:40:22;11.20;99.90
39067;DHT22;24821;51.988;6.020;2023-02-18T07:42:48;11.20;99.90
39067;DHT22;24821;51.988;6.020;2023-02-18T07:45:14;11.20;99.90
39067;DHT22;24821;51.988;6.020;2023-02-18T07:47:40;11.20;99.90
39067;DHT22;24821;51.988;6.020;2023-02-18T07:50:07;11.20;99.90
39067;DHT22;24821;51.988;6.020;2023-02-18T07:52:33;11.20;99.90
39067;DHT22;24821;51.988;6.020;2023-02-18T07:54:59;11.10;99.90
39067;DHT22;24821;51.988;6.020;2023-02-18T07:57:24;11.10;99.90
39067;DHT22;24821;51.988;6.020;2023-02-18T07:59:50;11.20;99.90
39067;DHT22;24821;51.988;6.020;2023-02-18T08:02:21;11.10;99.90
39067;DHT22;24821;51.988;6.020;2023-02-18T08:04:47;11.10;99.90
39067;DHT22;24821;51.988;6.020;2023-02-18T08:07:17;11.10;99.90
39067;DHT22;24821;51.988;6.020;2023-02-18T08:09:43;11.10;99.90
39067;DHT22;24821;51.988;6.020;2023-02-18T08:12:09;11.10;99.90
39067;DHT22;24821;51.988;6.020;2023-02-18T08:14:34;11.10;99.90
39067;DHT22;24821;51.988;6.020;2023-02-18T08:17:00;11.10;99.90
39067;DHT22;24821;51.988;6.020;2023-02-18T08:19:25;11.10;99.90
39067;DHT22;24821;51.988;6.020;2023-02-18T08:21:51;11.00;99.90
39067;DHT22;24821;51.988;6.020;2023-02-18T08:24:17;11.00;99.90
39067;DHT22;24821;51.988;6.020;2023-02-18T08:26:42;11.00;99.90
39067;DHT22;24821;51.988;6.020;2023-02-18T08:29:08;11.10;99.90
39067;DHT22;24821;51.988;6.020;2023-02-18T08:31:34;11.10;99.90
39067;DHT22;24821;51.988;6.020;2023-02-18T08:34:00;11.20;99.90
39067;DHT22;24821;51.988;6.020;2023-02-18T08:36:28;11.20;99.90
39067;DHT22;24821;51.988;6.020;2023-02-18T08:38:55;11.20;99.90
39067;DHT22;24821;51.988;6.020;2023-02-18T08:41:20;11.20;99.90
39067;DHT22;24821;51.988;6.020;2023-02-18T08:43:46;11.20;99.90
39067;DHT22;24821;51.988;6.020;2023-02-18T08:46:13;11.20;99.90
39067;DHT22;24821;51.988;6.020;2023-02-18T08:48:39;11.10;99.90
39067;DHT22;24821;51.988;6.020;2023-02-18T08:51:20;11.20;99.90
39067;DHT22;24821;51.988;6.020;2023-02-18T08:53:46;11.10;99.90
39067;DHT22;24821;51.988;6.020;2023-02-18T08:56:12;11.10;99.90
39067;DHT22;24821;51.988;6.020;2023-02-18T08:58:39;11.20;99.90
39067;DHT22;24821;51.988;6.020;2023-02-18T09:01:07;11.10;99.90
39067;DHT22;24821;51.988;6.020;2023-02-18T09:03:33;11.20;99.90
39067;DHT22;24821;51.988;6.020;2023-02-18T09:05:59;11.20;99.90
39067;DHT22;24821;51.988;6.020;2023-02-18T09:08:25;11.20;99.90
39067;DHT22;24821;51.988;6.020;2023-02-18T09:10:59;11.10;99.90
39067;DHT22;24821;51.988;6.020;2023-02-18T09:13:25;11.10;99.90
39067;DHT22;24821;51.988;6.020;2023-02-18T09:15:59;11.00;99.90
39067;DHT22;24821;51.988;6.020;2023-02-18T09:18:25;10.90;99.90
39067;DHT22;24821;51.988;6.020;2023-02-18T09:20:50;10.90;99.90
39067;DHT22;24821;51.988;6.020;2023-02-18T09:23:16;10.90;99.90
39067;DHT22;24821;51.988;6.020;2023-02-18T09:25:42;10.90;99.90
39067;DHT22;24821;51.988;6.020;2023-02-18T09:28:07;10.80;99.90
39067;DHT22;24821;51.988;6.020;2023-02-18T09:30:33;10.80;99.90
39067;DHT22;24821;51.988;6.020;2023-02-18T09:32:58;10.80;99.90
39067;DHT22;24821;51.988;6.020;2023-02-18T09:35:24;10.70;99.90
39067;DHT22;24821;51.988;6.020;2023-02-18T09:37:50;10.70;99.90
39067;DHT22;24821;51.988;6.020;2023-02-18T09:40:26;10.70;99.90
39067;DHT22;24821;51.988;6.020;2023-02-18T09:42:54;10.70;99.90
39067;DHT22;24821;51.988;6.020;2023-02-18T09:45:20;10.70;99.90
39067;DHT22;24821;51.988;6.020;2023-02-18T09:47:46;10.60;99.90
39067;DHT22;24821;51.988;6.020;2023-02-18T09:50:25;10.60;99.90
39067;DHT22;24821;51.988;6.020;2023-02-18T09:52:52;10.60;99.90
39067;DHT22;24821;51.988;6.020;2023-02-18T09:55:29;10.70;99.90
39067;DHT22;24821;51.988;6.020;2023-02-18T09:58:00;10.70;99.90
39067;DHT22;24821;51.988;6.020;2023-02-18T10:00:34;10.70;99.90
39067;DHT22;24821;51.988;6.020;2023-02-18T10:03:20;10.70;99.90
39067;DHT22;24821;51.988;6.020;2023-02-18T10:06:09;10.70;99.90
39067;DHT22;24821;51.988;6.020;2023-02-18T10:08:43;10.70;99.90
39067;DHT22;24821;51.988;6.020;2023-02-18T10:11:12;10.70;99.90
39067;DHT22;24821;51.988;6.020;2023-02-18T10:13:42;10.70;99.90
39067;DHT22;24821;51.988;6.020;2023-02-18T10:16:08;10.70;99.90
39067;DHT22;24821;51.988;6.020;2023-02-18T10:18:42;10.70;99.90
39067;DHT22;24821;51.988;6.020;2023-02-18T10:21:12;10.70;99.90
39067;DHT22;24821;51.988;6.020;2023-02-18T10:23:41;10.80;99.90
39067;DHT22;24821;51.988;6.020;2023-02-18T10:26:14;10.80;99.90
39067;DHT22;24821;51.988;6.020;2023-02-18T10:28:40;10.80;99.90
39067;DHT22;24821;51.988;6.020;2023-02-18T10:31:08;10.80;99.90
39067;DHT22;24821;51.988;6.020;2023-02-18T10:33:51;10.80;99.90
39067;DHT22;24821;51.988;6.020;2023-02-18T10:36:29;10.90;99.90
39067;DHT22;24821;51.988;6.020;2023-02-18T10:47:52;10.80;99.90
39067;DHT22;24821;51.988;6.020;2023-02-18T10:50:31;10.90;99.90
39067;DHT22;24821;51.988;6.020;2023-02-18T10:53:01;11.00;99.90
39067;DHT22;24821;51.988;6.020;2023-02-18T10:55:38;10.90;99.90
39067;DHT22;24821;51.988;6.020;2023-02-18T11:00:47;10.90;99.90
39067;DHT22;24821;51.988;6.020;2023-02-18T11:03:17;10.90;99.90
39067;DHT22;24821;51.988;6.020;2023-02-18T11:05:45;10.90;99.90
39067;DHT22;24821;51.988;6.020;2023-02-18T11:08:24;10.90;99.90
39067;DHT22;24821;51.988;6.020;2023-02-18T11:10:51;10.90;99.90
39067;DHT22;24821;51.988;6.020;2023-02-18T11:13:29;10.80;99.90
39067;DHT22;24821;51.988;6.020;2023-02-18T11:16:04;10.90;99.90
39067;DHT22;24821;51.988;6.020;2023-02-18T11:18:36;10.90;99.90
39067;DHT22;24821;51.988;6.020;2023-02-18T11:21:05;10.90;99.90
39067;DHT22;24821;51.988;6.020;2023-02-18T11:23:31;10.90;99.90
39067;DHT22;24821;51.988;6.020;2023-02-18T11:26:12;10.90;99.90
39067;DHT22;24821;51.988;6.020;2023-02-18T11:28:45;11.00;99.90
39067;DHT22;24821;51.988;6.020;2023-02-18T11:31:23;11.00;99.90
39067;DHT22;24821;51.988;6.020;2023-02-18T11:33:52;11.10;99.90
39067;DHT22;24821;51.988;6.020;2023-02-18T11:36:23;11.10;99.90
39067;DHT22;24821;51.988;6.020;2023-02-18T11:38:53;11.10;99.90
39067;DHT22;24821;51.988;6.020;2023-02-18T11:41:37;11.20;99.90
39067;DHT22;24821;51.988;6.020;2023-02-18T11:44:05;11.30;99.90
39067;DHT22;24821;51.988;6.020;2023-02-18T11:46:31;11.30;99.90
39067;DHT22;24821;51.988;6.020;2023-02-18T11:49:11;11.30;99.90
39067;DHT22;24821;51.988;6.020;2023-02-18T11:51:45;11.50;99.90
39067;DHT22;24821;51.988;6.020;2023-02-18T11:54:26;11.40;99.90
39067;DHT22;24821;51.988;6.020;2023-02-18T11:57:06;11.40;99.90
39067;DHT22;24821;51.988;6.020;2023-02-18T11:59:36;11.50;99.90
39067;DHT22;24821;51.988;6.020;2023-02-18T12:04:44;11.60;99.90
39067;DHT22;24821;51.988;6.020;2023-02-18T12:10:03;11.60;99.90
39067;DHT22;24821;51.988;6.020;2023-02-18T12:12:33;11.50;99.90
39067;DHT22;24821;51.988;6.020;2023-02-18T12:14:59;11.60;99.90
39067;DHT22;24821;51.988;6.020;2023-02-18T12:20:33;11.70;99.90
39067;DHT22;24821;51.988;6.020;2023-02-18T12:31:37;11.60;99.90
39067;DHT22;24821;51.988;6.020;2023-02-18T12:40:09;11.50;99.90
39067;DHT22;24821;51.988;6.020;2023-02-18T12:54:18;11.50;99.90
39067;DHT22;24821;51.988;6.020;2023-02-18T12:59:49;11.50;99.90
39067;DHT22;24821;51.988;6.020;2023-02-18T13:10:56;11.60;99.90
39067;DHT22;24821;51.988;6.020;2023-02-18T13:13:38;11.60;99.90
39067;DHT22;24821;51.988;6.020;2023-02-18T13:16:14;11.70;99.90
39067;DHT22;24821;51.988;6.020;2023-02-18T13:18:44;11.70;99.90
39067;DHT22;24821;51.988;6.020;2023-02-18T13:21:13;11.70;99.90
39067;DHT22;24821;51.988;6.020;2023-02-18T13:24:03;11.60;99.90
39067;DHT22;24821;51.988;6.020;2023-02-18T13:26:32;11.80;99.90
39067;DHT22;24821;51.988;6.020;2023-02-18T13:29:18;11.80;99.90
39067;DHT22;24821;51.988;6.020;2023-02-18T13:32:08;11.90;99.90
39067;DHT22;24821;51.988;6.020;2023-02-18T13:37:19;12.10;99.90
39067;DHT22;24821;51.988;6.020;2023-02-18T13:39:56;12.20;99.90
39067;DHT22;24821;51.988;6.020;2023-02-18T13:47:43;12.20;99.90
39067;DHT22;24821;51.988;6.020;2023-02-18T13:52:47;12.10;99.90
39067;DHT22;24821;51.988;6.020;2023-02-18T13:55:21;12.10;99.90
39067;DHT22;24821;51.988;6.020;2023-02-18T13:57:49;12.10;99.90
39067;DHT22;24821;51.988;6.020;2023-02-18T14:00:23;12.00;99.90
39067;DHT22;24821;51.988;6.020;2023-02-18T14:03:00;12.10;99.90
39067;DHT22;24821;51.988;6.020;2023-02-18T14:05:38;12.10;99.90
39067;DHT22;24821;51.988;6.020;2023-02-18T14:08:12;12.10;99.90
39067;DHT22;24821;51.988;6.020;2023-02-18T14:10:38;12.10;99.90
39067;DHT22;24821;51.988;6.020;2023-02-18T14:13:37;12.10;99.90
39067;DHT22;24821;51.988;6.020;2023-02-18T14:16:04;12.10;99.90
39067;DHT22;24821;51.988;6.020;2023-02-18T14:23:42;12.10;99.90
39067;DHT22;24821;51.988;6.020;2023-02-18T14:28:40;12.00;99.90
39067;DHT22;24821;51.988;6.020;2023-02-18T14:39:24;12.00;99.90
39067;DHT22;24821;51.988;6.020;2023-02-18T14:45:04;11.90;99.90
39067;DHT22;24821;51.988;6.020;2023-02-18T14:50:11;11.90;99.90
39067;DHT22;24821;51.988;6.020;2023-02-18T14:52:44;11.90;99.90
39067;DHT22;24821;51.988;6.020;2023-02-18T14:55:18;11.90;99.90
39067;DHT22;24821;51.988;6.020;2023-02-18T14:57:51;12.00;99.90
39067;DHT22;24821;51.988;6.020;2023-02-18T15:00:21;12.00;99.90
39067;DHT22;24821;51.988;6.020;2023-02-18T15:02:49;12.00;99.90
39067;DHT22;24821;51.988;6.020;2023-02-18T15:05:21;12.00;99.90
39067;DHT22;24821;51.988;6.020;2023-02-18T15:08:04;12.00;99.90
39067;DHT22;24821;51.988;6.020;2023-02-18T15:10:49;12.00;99.90
39067;DHT22;24821;51.988;6.020;2023-02-18T15:13:31;12.00;99.90
39067;DHT22;24821;51.988;6.020;2023-02-18T15:16:00;12.00;99.90
39067;DHT22;24821;51.988;6.020;2023-02-18T15:18:36;12.10;99.90
39067;DHT22;24821;51.988;6.020;2023-02-18T15:21:07;12.00;99.90
39067;DHT22;24821;51.988;6.020;2023-02-18T15:23:38;12.00;99.90
39067;DHT22;24821;51.988;6.020;2023-02-18T15:26:05;12.10;99.90
39067;DHT22;24821;51.988;6.020;2023-02-18T15:28:32;12.00;99.90
39067;DHT22;24821;51.988;6.020;2023-02-18T15:31:02;12.10;99.90
39067;DHT22;24821;51.988;6.020;2023-02-18T15:33:28;12.10;99.90
39067;DHT22;24821;51.988;6.020;2023-02-18T15:36:05;12.10;99.90
39067;DHT22;24821;51.988;6.020;2023-02-18T15:38:31;12.10;99.90
39067;DHT22;24821;51.988;6.020;2023-02-18T15:40:58;12.10;99.90
39067;DHT22;24821;51.988;6.020;2023-02-18T15:43:25;12.20;99.90
39067;DHT22;24821;51.988;6.020;2023-02-18T15:45:53;12.10;99.90
39067;DHT22;24821;51.988;6.020;2023-02-18T15:48:35;12.10;99.90
39067;DHT22;24821;51.988;6.020;2023-02-18T15:51:04;12.10;99.90
39067;DHT22;24821;51.988;6.020;2023-02-18T15:53:31;12.10;99.90
39067;DHT22;24821;51.988;6.020;2023-02-18T15:56:06;12.10;99.90
39067;DHT22;24821;51.988;6.020;2023-02-18T15:58:34;12.10;99.90
39067;DHT22;24821;51.988;6.020;2023-02-18T16:01:04;12.10;99.90
39067;DHT22;24821;51.988;6.020;2023-02-18T16:03:44;12.10;99.90
39067;DHT22;24821;51.988;6.020;2023-02-18T16:06:34;12.10;99.90
39067;DHT22;24821;51.988;6.020;2023-02-18T16:09:13;12.10;99.90
39067;DHT22;24821;51.988;6.020;2023-02-18T16:11:45;12.10;99.90
39067;DHT22;24821;51.988;6.020;2023-02-18T16:17:05;12.10;99.90
39067;DHT22;24821;51.988;6.020;2023-02-18T16:19:32;12.10;99.90
39067;DHT22;24821;51.988;6.020;2023-02-18T16:22:03;12.10;99.90
39067;DHT22;24821;51.988;6.020;2023-02-18T16:24:30;12.10;99.90
39067;DHT22;24821;51.988;6.020;2023-02-18T16:27:00;12.10;99.90
39067;DHT22;24821;51.988;6.020;2023-02-18T16:29:34;12.10;99.90
39067;DHT22;24821;51.988;6.020;2023-02-18T16:32:00;12.10;99.90
39067;DHT22;24821;51.988;6.020;2023-02-18T16:34:26;12.10;99.90
39067;DHT22;24821;51.988;6.020;2023-02-18T16:36:52;12.10;99.90
39067;DHT22;24821;51.988;6.020;2023-02-18T16:39:37;12.10;99.90
39067;DHT22;24821;51.988;6.020;2023-02-18T16:42:08;12.00;99.90
39067;DHT22;24821;51.988;6.020;2023-02-18T16:44:34;12.00;99.90
39067;DHT22;24821;51.988;6.020;2023-02-18T16:46:59;12.00;99.90
39067;DHT22;24821;51.988;6.020;2023-02-18T16:49:26;12.00;99.90
39067;DHT22;24821;51.988;6.020;2023-02-18T16:51:52;12.00;99.90
39067;DHT22;24821;51.988;6.020;2023-02-18T16:54:18;12.00;99.90
39067;DHT22;24821;51.988;6.020;2023-02-18T16:56:44;12.00;99.90
39067;DHT22;24821;51.988;6.020;2023-02-18T16:59:09;12.00;99.90
39067;DHT22;24821;51.988;6.020;2023-02-18T17:01:40;12.00;99.90
39067;DHT22;24821;51.988;6.020;2023-02-18T17:04:11;11.90;99.90
39067;DHT22;24821;51.988;6.020;2023-02-18T17:06:37;11.90;99.90
39067;DHT22;24821;51.988;6.020;2023-02-18T17:09:13;12.00;99.90
39067;DHT22;24821;51.988;6.020;2023-02-18T17:11:43;11.90;99.90
39067;DHT22;24821;51.988;6.020;2023-02-18T17:14:12;12.00;99.90
39067;DHT22;24821;51.988;6.020;2023-02-18T17:16:38;11.90;99.90
39067;DHT22;24821;51.988;6.020;2023-02-18T17:19:05;11.90;99.90
39067;DHT22;24821;51.988;6.020;2023-02-18T17:21:30;11.90;99.90
39067;DHT22;24821;51.988;6.020;2023-02-18T17:23:56;11.90;99.90
39067;DHT22;24821;51.988;6.020;2023-02-18T17:26:27;11.90;99.90
39067;DHT22;24821;51.988;6.020;2023-02-18T17:28:54;11.90;99.90
39067;DHT22;24821;51.988;6.020;2023-02-18T17:31:22;11.80;99.90
39067;DHT22;24821;51.988;6.020;2023-02-18T17:33:51;11.80;99.90
39067;DHT22;24821;51.988;6.020;2023-02-18T17:36:17;11.80;99.90
39067;DHT22;24821;51.988;6.020;2023-02-18T17:38:43;11.80;99.90
39067;DHT22;24821;51.988;6.020;2023-02-18T17:41:10;11.80;99.90
39067;DHT22;24821;51.988;6.020;2023-02-18T17:43:36;11.80;99.90
39067;DHT22;24821;51.988;6.020;2023-02-18T17:46:02;11.80;99.90
39067;DHT22;24821;51.988;6.020;2023-02-18T17:48:28;11.80;99.90
39067;DHT22;24821;51.988;6.020;2023-02-18T17:50:54;11.90;99.90
39067;DHT22;24821;51.988;6.020;2023-02-18T17:53:20;11.80;99.90
39067;DHT22;24821;51.988;6.020;2023-02-18T17:55:48;11.80;99.90
39067;DHT22;24821;51.988;6.020;2023-02-18T17:58:14;11.80;99.90